Henry County Airport

About
Name: Henry County Airport
Identifier:  PHT/KPHT
Local Time:  22. Aug 23:21 CDT
Location
Flights per Day
0 flights
Distance: 477km (296mi)
Punctuality
50% (0 flights per day delayed)
Delay Average: 22 minutes
Current Weather
 21 C (Humidity: 100%)
  0kt (0km/h / 0mph) from 0°
  Broken clouds at 200 feet (60 meter)
  Overcast at 6,000 feet (1,828 meter)
  1km (1 mi.)
 Mist
 METAR KPHT 230355Z AUTO 00000KT 1SM BR BKN002 OVC060 21/21 A3000 RMK A01

Current Flights

Departures
Number Departure To Airline
Arrivals
Number Arrival From Airline

Current Delays

Departures
N/A
Arrivals
N/A

Destinations

Top Destinations
Airport Flights
per week
Seats
per week
  Abingdon (VJI) 0 - 0 0
  Charlotte (CLT) 0 - 0 0
  Naples (APF) 0 - 0 0
  North Platte (LBF) 0 - 0 0
  Smyrna (MQY) 0 - 0 0
  Bozeman (BZN) 0 - 0 0
  Lawrenceville (LZU) 0 - 0 0
  Apalachicola (AAF) 0 - 0 0
  Nashville (BNA) 0 - 0 0

Airlines & Planes

Top Airlines
Airline Flights
per Day
Seats
per Day
Nordwind Airlines 0 -
Jet Charter Inc ( Franklin Lakes Nj ) 0 -
  National Airlines 0 -
Top Plane Types
Model Flights Seats
Cirrus SR22 0.1/day - 0
Piper PA-46-350P Malibu Mirage 0.1/day - 0